AAN127 SPJC-SPJL
Flight info
| Callsign | AAN127 |
|---|---|
| Flight time | N/A |
| Altitude | 35000 |
| Route | KULIS UM415 OPKUL |
| Aircraft | B738/M-SDE2E3FGHIRWXY/LB1 |
Departure
| Time | N/A |
|---|---|
| Airport | Jorge Chávez International Airport (SPJC) |
Arrival
| Time | 2026-05-08 15:33 |
|---|---|
| Airport | Inca Manco Capac International Airport (SPJL) |
| Time | Latitude | Longitude | Altitude | Speed | Heading |
|---|---|---|---|---|---|
| 2026-05-08 15:17 | -15.17886 | -70.86785 | 24200 ft | 390 kts | 114° |
| 2026-05-08 15:17 | -15.18936 | -70.84200 | 23865 ft | 388 kts | 114° |
| 2026-05-08 15:17 | -15.19979 | -70.81632 | 23459 ft | 385 kts | 114° |
| 2026-05-08 15:18 | -15.21015 | -70.79084 | 23065 ft | 382 kts | 114° |
| 2026-05-08 15:18 | -15.22047 | -70.76556 | 22685 ft | 380 kts | 114° |
| 2026-05-08 15:18 | -15.23073 | -70.74042 | 22294 ft | 377 kts | 114° |
| 2026-05-08 15:18 | -15.24081 | -70.71584 | 21931 ft | 374 kts | 114° |
| 2026-05-08 15:19 | -15.25093 | -70.69109 | 21547 ft | 372 kts | 114° |
| 2026-05-08 15:19 | -15.26098 | -70.66658 | 21168 ft | 369 kts | 114° |
| 2026-05-08 15:19 | -15.27101 | -70.64216 | 20796 ft | 366 kts | 114° |
| 2026-05-08 15:19 | -15.28075 | -70.61786 | 20467 ft | 363 kts | 111° |
| 2026-05-08 15:20 | -15.28932 | -70.59339 | 20284 ft | 360 kts | 110° |
| 2026-05-08 15:20 | -15.29743 | -70.56883 | 20228 ft | 361 kts | 109° |
| 2026-05-08 15:20 | -15.30552 | -70.54414 | 20196 ft | 364 kts | 109° |
| 2026-05-08 15:20 | -15.31377 | -70.51919 | 20181 ft | 366 kts | 110° |
| 2026-05-08 15:21 | -15.32192 | -70.49481 | 20172 ft | 365 kts | 110° |
| 2026-05-08 15:21 | -15.33038 | -70.46975 | 20198 ft | 365 kts | 110° |
| 2026-05-08 15:21 | -15.33870 | -70.44527 | 20215 ft | 365 kts | 110° |
| 2026-05-08 15:21 | -15.34727 | -70.42017 | 20240 ft | 365 kts | 110° |
| 2026-05-08 15:22 | -15.35565 | -70.39566 | 20276 ft | 365 kts | 110° |
| 2026-05-08 15:22 | -15.36409 | -70.37091 | 20318 ft | 361 kts | 110° |
| 2026-05-08 15:22 | -15.37235 | -70.34661 | 20374 ft | 354 kts | 110° |
| 2026-05-08 15:22 | -15.38031 | -70.32317 | 20399 ft | 334 kts | 110° |
| 2026-05-08 15:23 | -15.38786 | -70.30124 | 20420 ft | 311 kts | 112° |
| 2026-05-08 15:23 | -15.39693 | -70.28177 | 20448 ft | 290 kts | 120° |
| 2026-05-08 15:23 | -15.40684 | -70.26380 | 20477 ft | 289 kts | 121° |
| 2026-05-08 15:23 | -15.41724 | -70.24528 | 20526 ft | 304 kts | 121° |
| 2026-05-08 15:24 | -15.42782 | -70.22611 | 20542 ft | 308 kts | 120° |
| 2026-05-08 15:24 | -15.43826 | -70.20679 | 20535 ft | 305 kts | 120° |
| 2026-05-08 15:24 | -15.44847 | -70.18768 | 20526 ft | 301 kts | 120° |
| 2026-05-08 15:24 | -15.45863 | -70.16860 | 20533 ft | 303 kts | 120° |
| 2026-05-08 15:25 | -15.46961 | -70.14999 | 20524 ft | 302 kts | 130° |
| 2026-05-08 15:25 | -15.48402 | -70.13455 | 20513 ft | 292 kts | 139° |
| 2026-05-08 15:25 | -15.49873 | -70.12081 | 20420 ft | 277 kts | 140° |
| 2026-05-08 15:25 | -15.51303 | -70.10767 | 19859 ft | 280 kts | 140° |
| 2026-05-08 15:26 | -15.52768 | -70.09414 | 19146 ft | 289 kts | 140° |
| 2026-05-08 15:26 | -15.54283 | -70.08000 | 18331 ft | 296 kts | 139° |
| 2026-05-08 15:26 | -15.55813 | -70.06558 | 17767 ft | 294 kts | 139° |
| 2026-05-08 15:26 | -15.57268 | -70.05183 | 17687 ft | 272 kts | 139° |
| 2026-05-08 15:27 | -15.58622 | -70.03897 | 17552 ft | 255 kts | 139° |
| 2026-05-08 15:27 | -15.59872 | -70.02706 | 17396 ft | 234 kts | 140° |
| 2026-05-08 15:27 | -15.60972 | -70.01544 | 17234 ft | 220 kts | 126° |
| 2026-05-08 15:27 | -15.61614 | -70.00139 | 17129 ft | 218 kts | 104° |
| 2026-05-08 15:28 | -15.61763 | -69.98519 | 16999 ft | 233 kts | 85° |
| 2026-05-08 15:28 | -15.61366 | -69.96905 | 16854 ft | 231 kts | 63° |
| 2026-05-08 15:28 | -15.60440 | -69.95573 | 16703 ft | 226 kts | 40° |
| 2026-05-08 15:28 | -15.59143 | -69.94723 | 16559 ft | 221 kts | 19° |
| 2026-05-08 15:29 | -15.57657 | -69.94413 | 16429 ft | 217 kts | 359° |
| 2026-05-08 15:29 | -15.56186 | -69.94647 | 16296 ft | 211 kts | 339° |
| 2026-05-08 15:29 | -15.54891 | -69.95371 | 16227 ft | 215 kts | 320° |
| 2026-05-08 15:29 | -15.53867 | -69.96512 | 16108 ft | 215 kts | 303° |
| 2026-05-08 15:30 | -15.53202 | -69.97844 | 15885 ft | 204 kts | 292° |
| 2026-05-08 15:30 | -15.52712 | -69.99157 | 15772 ft | 186 kts | 290° |
| 2026-05-08 15:30 | -15.52267 | -70.00376 | 15631 ft | 176 kts | 290° |
| 2026-05-08 15:30 | -15.51831 | -70.01575 | 15443 ft | 179 kts | 290° |
| 2026-05-08 15:31 | -15.51390 | -70.02768 | 15255 ft | 177 kts | 290° |
| 2026-05-08 15:31 | -15.50946 | -70.03960 | 15048 ft | 177 kts | 291° |
| 2026-05-08 15:31 | -15.50510 | -70.05133 | 14863 ft | 177 kts | 290° |
| 2026-05-08 15:31 | -15.50066 | -70.06331 | 14649 ft | 179 kts | 291° |
| 2026-05-08 15:32 | -15.49624 | -70.07524 | 14448 ft | 177 kts | 291° |
| 2026-05-08 15:32 | -15.49176 | -70.08714 | 14108 ft | 179 kts | 289° |
| 2026-05-08 15:32 | -15.48804 | -70.09940 | 13800 ft | 176 kts | 285° |
| 2026-05-08 15:32 | -15.48486 | -70.11159 | 13480 ft | 174 kts | 287° |
| 2026-05-08 15:33 | -15.48089 | -70.12351 | 13158 ft | 174 kts | 290° |
| 2026-05-08 15:33 | -15.47619 | -70.13510 | 12739 ft | 174 kts | 293° |
| 2026-05-08 15:33 | -15.47150 | -70.14628 | 12558 ft | 146 kts | 293° |
| 2026-05-08 15:33 | -15.46952 | -70.15133 | 12558 ft | 6 kts | 292° |
| 2026-05-08 15:34 | -15.46900 | -70.15266 | 12557 ft | 36 kts | 292° |
| 2026-05-08 15:34 | -15.46815 | -70.15472 | 12557 ft | 24 kts | 293° |
| 2026-05-08 15:34 | -15.46772 | -70.15585 | 12556 ft | 16 kts | 284° |
| 2026-05-08 15:34 | -15.46819 | -70.15666 | 12556 ft | 12 kts | 202° |
| 2026-05-08 15:35 | -15.46894 | -70.15691 | 12557 ft | 11 kts | 199° |
| 2026-05-08 15:35 | -15.46959 | -70.15689 | 12557 ft | 0 kts | 167° |